Time;durP1;ratioP1;P1;durP2;ratioP2;P2;SDS_P1;SDS_P2;PMS_P1;PMS_P2;Temp;Humidity;BMP_temperature;BMP_pressure;BME280_temperature;BME280_humidity;BME280_pressure;Samples;Min_cycle;Max_cycle;Signal;HPM_P1;HPM_P2
2021/08/27 03:31:35;;;;;;;34.53;5.47;;;13.80;99.70;;;;;;5072292;28;20354;-68
2021/08/27 03:34:02;;;;;;;35.27;5.40;;;13.80;99.70;;;;;;5072226;28;20589;-67
2021/08/27 03:36:31;;;;;;;36.27;6.33;;;13.90;99.70;;;;;;5072435;28;20454;-69
2021/08/27 03:39:00;;;;;;;34.77;5.43;;;13.90;99.70;;;;;;5071807;28;20454;-68
2021/08/27 03:41:29;;;;;;;35.40;5.50;;;13.90;99.70;;;;;;5072078;28;20458;-68
2021/08/27 03:43:57;;;;;;;34.70;5.67;;;13.90;99.70;;;;;;5071956;28;20450;-68
2021/08/27 03:46:25;;;;;;;34.70;6.67;;;13.90;99.70;;;;;;5072368;28;20447;-67
2021/08/27 03:48:54;;;;;;;34.57;5.53;;;13.90;99.70;;;;;;5071529;28;20481;-68
2021/08/27 03:51:21;;;;;;;35.30;6.10;;;13.90;99.70;;;;;;5071879;28;20836;-68
2021/08/27 03:53:49;;;;;;;34.57;5.63;;;13.80;99.70;;;;;;5071829;28;20447;-68
2021/08/27 03:56:16;;;;;;;33.87;5.20;;;13.80;99.70;;;;;;5072034;28;20775;-68
2021/08/27 03:58:44;;;;;;;34.57;5.03;;;13.80;99.70;;;;;;5071566;28;20450;-68
2021/08/27 04:01:12;;;;;;;33.60;5.03;;;13.80;99.70;;;;;;5071793;28;20724;-68
2021/08/27 04:03:38;;;;;;;37.17;5.20;;;13.80;99.70;;;;;;5071832;28;20493;-68
2021/08/27 04:06:08;;;;;;;34.57;5.40;;;13.80;99.70;;;;;;5071619;28;20439;-67
2021/08/27 04:08:37;;;;;;;34.60;5.20;;;13.90;99.70;;;;;;5071168;28;20541;-68
2021/08/27 04:11:04;;;;;;;36.00;5.93;;;13.80;99.70;;;;;;5069483;28;20485;-68
2021/08/27 04:13:31;;;;;;;37.63;5.87;;;13.90;99.70;;;;;;5071721;28;20447;-68
2021/08/27 04:15:58;;;;;;;35.90;5.97;;;13.90;99.70;;;;;;5071446;28;20446;-67
2021/08/27 04:18:25;;;;;;;37.10;6.07;;;13.90;99.70;;;;;;5071000;28;20450;-69
2021/08/27 04:20:51;;;;;;;39.87;6.53;;;13.90;99.70;;;;;;5071349;28;20831;-68
2021/08/27 04:23:19;;;;;;;35.63;6.40;;;13.90;99.70;;;;;;5071490;28;20454;-68
2021/08/27 04:25:46;;;;;;;35.63;5.30;;;13.80;99.70;;;;;;5071139;28;20472;-68
2021/08/27 04:28:13;;;;;;;37.00;5.97;;;13.90;99.70;;;;;;5071410;28;20450;-68
2021/08/27 04:30:40;;;;;;;37.47;5.83;;;13.90;99.70;;;;;;5070661;28;20994;-67
2021/08/27 04:33:06;;;;;;;35.20;4.97;;;13.90;99.70;;;;;;5071248;28;20463;-66
2021/08/27 04:35:33;;;;;;;36.67;6.03;;;13.90;99.70;;;;;;5070936;28;20447;-67
2021/08/27 04:38:00;;;;;;;37.07;5.23;;;13.90;99.70;;;;;;5071115;28;20520;-67
2021/08/27 04:40:28;;;;;;;37.83;5.87;;;13.80;99.70;;;;;;5070739;28;20442;-67
2021/08/27 04:42:55;;;;;;;36.20;6.07;;;13.90;99.70;;;;;;5071058;28;20458;-67
2021/08/27 04:45:22;;;;;;;35.83;5.40;;;13.80;99.70;;;;;;5070963;28;20443;-68
2021/08/27 04:47:48;;;;;;;38.07;6.60;;;13.90;99.70;;;;;;5070799;28;20823;-68
2021/08/27 04:50:15;;;;;;;38.80;5.10;;;13.90;99.70;;;;;;5070338;28;21000;-68
2021/08/27 04:52:42;;;;;;;37.43;6.10;;;13.80;99.70;;;;;;5070716;28;20470;-68
2021/08/27 04:55:10;;;;;;;37.70;5.13;;;13.80;99.70;;;;;;5070744;28;20816;-67
2021/08/27 04:57:40;;;;;;;35.53;5.60;;;13.80;99.70;;;;;;5070138;28;20458;-68
2021/08/27 05:00:09;;;;;;;34.43;5.10;;;13.90;99.70;;;;;;5070260;28;20819;-68
2021/08/27 05:02:36;;;;;;;35.70;5.70;;;13.90;99.70;;;;;;5070640;28;20463;-68
2021/08/27 05:05:03;;;;;;;34.67;5.30;;;13.90;99.70;;;;;;5070529;28;20443;-67
2021/08/27 05:07:30;;;;;;;39.13;5.30;;;13.90;99.70;;;;;;5070838;28;20455;-68
2021/08/27 05:09:57;;;;;;;35.10;5.10;;;13.90;99.70;;;;;;5070036;28;20792;-67
2021/08/27 05:12:24;;;;;;;35.07;5.30;;;13.80;99.70;;;;;;5068516;28;20470;-68
2021/08/27 05:14:52;;;;;;;34.20;4.80;;;13.80;99.70;;;;;;5070390;28;20450;-67
2021/08/27 05:17:18;;;;;;;34.80;4.90;;;13.70;99.70;;;;;;5070142;28;20492;-67
2021/08/27 05:19:45;;;;;;;34.50;4.90;;;13.70;99.70;;;;;;5069807;28;20447;-67
2021/08/27 05:22:12;;;;;;;35.30;5.23;;;13.70;99.70;;;;;;5070617;28;20462;-67
2021/08/27 05:24:38;;;;;;;39.40;5.90;;;13.80;99.70;;;;;;5070242;28;20458;-67
2021/08/27 05:27:05;;;;;;;35.30;5.07;;;13.70;99.70;;;;;;5070639;28;20962;-67
2021/08/27 05:29:32;;;;;;;36.20;6.33;;;13.70;99.70;;;;;;5070032;28;20454;-67
2021/08/27 05:32:00;;;;;;;37.53;6.07;;;13.80;99.70;;;;;;5070172;28;21031;-67
2021/08/27 05:34:27;;;;;;;34.80;5.07;;;13.80;99.70;;;;;;5070248;28;20453;-67
2021/08/27 05:36:53;;;;;;;39.00;5.60;;;13.80;99.70;;;;;;5070363;28;20926;-67
2021/08/27 05:39:20;;;;;;;37.10;5.23;;;13.80;99.70;;;;;;5069780;28;20441;-66
2021/08/27 05:41:47;;;;;;;35.93;5.47;;;13.80;99.70;;;;;;5070147;28;20841;-68
2021/08/27 05:44:14;;;;;;;35.80;5.10;;;13.90;99.70;;;;;;5070092;28;20443;-67
2021/08/27 05:46:40;;;;;;;38.60;6.20;;;13.90;99.70;;;;;;5070141;28;20499;-67
2021/08/27 05:49:08;;;;;;;35.70;5.60;;;13.80;99.70;;;;;;5069834;28;20442;-68
2021/08/27 05:51:35;;;;;;;38.53;6.40;;;13.90;99.70;;;;;;5070030;28;20482;-67
2021/08/27 05:54:02;;;;;;;36.47;5.53;;;13.90;99.70;;;;;;5069975;28;20442;-66
2021/08/27 05:56:28;;;;;;;37.87;6.20;;;13.90;99.70;;;;;;5070461;28;20447;-66
2021/08/27 05:58:55;;;;;;;35.30;5.30;;;13.90;99.70;;;;;;5069875;28;20454;-68
2021/08/27 06:01:22;;;;;;;35.20;5.50;;;14.00;99.70;;;;;;5070141;28;20459;-67
2021/08/27 06:03:48;;;;;;;37.97;5.80;;;13.90;99.70;;;;;;5070281;28;20941;-64
2021/08/27 06:06:16;;;;;;;38.23;5.70;;;13.90;99.70;;;;;;5070323;28;20985;-67
2021/08/27 06:08:43;;;;;;;37.93;6.57;;;13.90;99.70;;;;;;5069944;28;20450;-67
2021/08/27 06:11:10;;;;;;;36.83;5.37;;;14.00;99.70;;;;;;5068157;28;20487;-67
2021/08/27 06:13:37;;;;;;;36.43;5.07;;;13.90;99.70;;;;;;5070850;28;20873;-67
2021/08/27 06:16:04;;;;;;;36.17;5.57;;;13.90;99.70;;;;;;5070321;28;20450;-67
2021/08/27 06:18:31;;;;;;;40.37;6.30;;;13.90;99.70;;;;;;5069379;28;20438;-66
2021/08/27 06:20:58;;;;;;;39.10;7.10;;;13.90;99.70;;;;;;5069852;28;20431;-66
2021/08/27 06:23:26;;;;;;;37.47;6.27;;;14.00;99.70;;;;;;5070023;28;20434;-67
2021/08/27 06:25:53;;;;;;;38.70;6.60;;;14.00;99.70;;;;;;5069521;28;20442;-67
2021/08/27 06:28:20;;;;;;;36.10;5.27;;;14.10;99.70;;;;;;5069898;28;20458;-67
2021/08/27 06:30:46;;;;;;;34.30;5.57;;;14.10;99.70;;;;;;5071931;28;20497;-67
2021/08/27 06:33:13;;;;;;;37.33;6.77;;;14.00;99.70;;;;;;5073678;28;20438;-67
2021/08/27 06:35:40;;;;;;;38.90;6.23;;;14.10;99.70;;;;;;5073339;28;20507;-68
2021/08/27 06:38:23;;;;;;;36.40;5.70;;;14.20;99.70;;;;;;5073597;28;20450;-66
2021/08/27 06:40:54;;;;;;;35.90;5.93;;;14.20;99.70;;;;;;5073350;28;20442;-67
2021/08/27 06:43:21;;;;;;;38.93;6.47;;;14.30;99.70;;;;;;5073398;28;20480;-67
2021/08/27 06:45:48;;;;;;;36.43;5.63;;;14.30;99.70;;;;;;5073200;28;20500;-67
2021/08/27 06:48:15;;;;;;;38.50;6.50;;;14.40;99.70;;;;;;5073194;28;20454;-67
2021/08/27 06:50:42;;;;;;;37.07;7.37;;;14.50;99.70;;;;;;5072544;28;20474;-67
2021/08/27 06:53:08;;;;;;;36.50;6.73;;;14.40;99.70;;;;;;5073141;28;20462;-67
2021/08/27 06:55:36;;;;;;;35.83;7.40;;;14.40;99.70;;;;;;5072891;28;20871;-66
2021/08/27 06:58:05;;;;;;;39.70;6.83;;;14.30;99.70;;;;;;5073145;28;20442;-67
2021/08/27 07:00:32;;;;;;;36.90;6.83;;;14.50;99.70;;;;;;5072581;28;20450;-67
2021/08/27 07:02:59;;;;;;;39.67;6.97;;;15.00;99.70;;;;;;5072960;28;20467;-67
2021/08/27 07:05:26;;;;;;;36.03;6.30;;;14.90;99.70;;;;;;5072748;28;20438;-67
2021/08/27 07:07:53;;;;;;;35.60;7.00;;;14.90;99.70;;;;;;5072866;28;20439;-67
2021/08/27 07:10:20;;;;;;;34.30;5.33;;;15.50;99.70;;;;;;5072376;28;20450;-68
2021/08/27 07:12:48;;;;;;;33.10;3.77;;;16.40;99.70;;;;;;5070777;28;20493;-67
2021/08/27 07:15:17;;;;;;;36.03;3.30;;;16.10;99.70;;;;;;5072497;28;20550;-67
2021/08/27 07:17:44;;;;;;;33.17;3.20;;;16.10;99.70;;;;;;5072305;28;20442;-67
2021/08/27 07:20:12;;;;;;;32.60;2.60;;;16.70;99.70;;;;;;5072249;28;20443;-67
2021/08/27 07:22:40;;;;;;;35.27;3.20;;;17.50;99.70;;;;;;5072607;28;20470;-67
2021/08/27 07:25:08;;;;;;;35.47;4.07;;;18.00;99.70;;;;;;5072796;28;20611;-67
2021/08/27 07:27:34;;;;;;;33.60;5.17;;;18.60;99.70;;;;;;5072507;28;20443;-67
2021/08/27 07:30:01;;;;;;;33.63;4.07;;;18.50;99.70;;;;;;5071892;28;20439;-67
2021/08/27 07:32:29;;;;;;;33.63;4.53;;;18.70;99.70;;;;;;5072320;28;20600;-67
2021/08/27 07:34:56;;;;;;;35.83;5.30;;;19.20;99.70;;;;;;5072259;28;20447;-67
2021/08/27 07:37:22;;;;;;;33.40;5.70;;;19.20;99.70;;;;;;5072529;28;20443;-67
2021/08/27 07:39:49;;;;;;;35.37;7.27;;;19.30;99.70;;;;;;5071810;28;20476;-67
2021/08/27 07:42:16;;;;;;;34.50;7.33;;;19.60;99.70;;;;;;5071835;28;20960;-67
2021/08/27 07:44:43;;;;;;;33.93;6.93;;;19.20;99.70;;;;;;5071992;28;20855;-68
2021/08/27 07:47:09;;;;;;;34.33;6.57;;;18.40;99.70;;;;;;5072172;28;20454;-67
2021/08/27 07:49:37;;;;;;;33.43;5.57;;;18.40;99.70;;;;;;5071554;28;20447;-67
2021/08/27 07:52:05;;;;;;;35.30;7.23;;;18.00;99.70;;;;;;5071836;28;20494;-67
2021/08/27 07:54:32;;;;;;;33.30;4.70;;;17.80;99.70;;;;;;5071809;28;20443;-67
2021/08/27 07:56:59;;;;;;;44.70;8.73;;;17.80;99.70;;;;;;5071923;28;20451;-67
2021/08/27 07:59:26;;;;;;;35.30;5.70;;;17.40;99.70;;;;;;5072691;28;20508;-67
2021/08/27 08:01:53;;;;;;;32.20;3.70;;;17.10;99.70;;;;;;5071524;28;21001;-67
2021/08/27 08:04:20;;;;;;;33.30;5.33;;;16.80;99.70;;;;;;5071708;28;20521;-67
2021/08/27 08:06:48;;;;;;;34.33;6.07;;;16.80;99.70;;;;;;5071967;28;20438;-68
2021/08/27 08:09:14;;;;;;;32.70;4.57;;;16.80;99.70;;;;;;5071255;28;20447;-67
2021/08/27 08:11:41;;;;;;;31.80;4.13;;;16.60;99.70;;;;;;5069345;28;20482;-67
2021/08/27 08:14:08;;;;;;;32.50;4.70;;;16.70;99.70;;;;;;5071455;28;20443;-66
2021/08/27 08:16:35;;;;;;;33.10;4.00;;;16.80;99.70;;;;;;5071628;28;20465;-67
2021/08/27 08:19:01;;;;;;;32.90;5.30;;;17.00;99.70;;;;;;5071160;28;20633;-67
2021/08/27 08:21:28;;;;;;;32.23;4.30;;;17.10;99.70;;;;;;5071500;28;20830;-67
2021/08/27 08:23:57;;;;;;;32.57;3.90;;;17.20;99.70;;;;;;5071062;28;20831;-66
2021/08/27 08:26:24;;;;;;;32.63;3.97;;;17.10;99.70;;;;;;5071473;28;20799;-67
2021/08/27 08:28:52;;;;;;;33.00;4.40;;;17.00;99.70;;;;;;5070880;28;20817;-67
2021/08/27 08:31:20;;;;;;;32.80;5.20;;;16.60;99.70;;;;;;5071121;28;21023;-67
2021/08/27 08:33:48;;;;;;;32.23;4.23;;;16.60;99.70;;;;;;5071224;28;20481;-67
2021/08/27 08:36:16;;;;;;;32.27;4.30;;;16.80;99.70;;;;;;5071275;28;20439;-66
2021/08/27 08:38:43;;;;;;;32.57;3.40;;;17.00;99.70;;;;;;5070727;28;20546;-67
2021/08/27 08:41:11;;;;;;;32.37;3.67;;;16.80;99.70;;;;;;5071693;28;20467;-67
2021/08/27 08:43:37;;;;;;;32.00;3.47;;;16.70;99.70;;;;;;5071386;28;20462;-67
2021/08/27 08:46:04;;;;;;;32.80;3.90;;;16.50;99.70;;;;;;5070850;28;20962;-68
2021/08/27 08:48:33;;;;;;;32.17;3.30;;;16.30;99.70;;;;;;5070546;28;20462;-67
2021/08/27 08:51:02;;;;;;;32.00;3.47;;;16.30;99.70;;;;;;5071033;28;20450;-67
2021/08/27 08:53:31;;;;;;;33.67;3.77;;;16.30;99.70;;;;;;5070368;28;20538;-66
2021/08/27 08:55:58;;;;;;;31.53;3.40;;;16.30;99.70;;;;;;5070886;28;20550;-67
2021/08/27 08:58:26;;;;;;;32.03;3.17;;;16.60;99.70;;;;;;5070971;28;20446;-67
2021/08/27 09:00:53;;;;;;;32.93;3.63;;;16.60;99.70;;;;;;5070672;28;20443;-65
2021/08/27 09:03:20;;;;;;;31.90;3.40;;;16.90;99.70;;;;;;5070960;28;20450;-66
2021/08/27 09:05:48;;;;;;;31.67;3.67;;;16.90;99.70;;;;;;5070529;28;20442;-67
2021/08/27 09:08:16;;;;;;;32.60;3.53;;;17.00;99.70;;;;;;5070787;28;20454;-67
2021/08/27 09:10:43;;;;;;;32.47;3.30;;;17.10;99.70;;;;;;5070198;28;20469;-68
2021/08/27 09:13:11;;;;;;;34.87;4.03;;;16.90;99.70;;;;;;5068606;28;20482;-68
2021/08/27 09:15:39;;;;;;;32.70;3.70;;;16.80;99.70;;;;;;5070383;28;20438;-66
2021/08/27 09:18:10;;;;;;;31.20;3.33;;;16.70;99.70;;;;;;5070774;28;20937;-66
2021/08/27 09:20:37;;;;;;;31.50;3.70;;;16.60;99.70;;;;;;5070091;28;20962;-67
2021/08/27 09:23:06;;;;;;;31.33;3.30;;;16.60;99.70;;;;;;5070413;28;20466;-66
2021/08/27 09:25:35;;;;;;;32.20;4.10;;;16.90;99.70;;;;;;5070340;28;20438;-67
2021/08/27 09:28:08;;;;;;;32.20;4.83;;;16.90;99.70;;;;;;5070370;28;20450;-67
2021/08/27 09:30:36;;;;;;;33.70;4.57;;;17.00;99.70;;;;;;5070061;28;20443;-67
2021/08/27 09:33:13;;;;;;;33.40;4.50;;;17.10;99.70;;;;;;5070597;28;20893;-68
2021/08/27 09:35:40;;;;;;;34.40;4.63;;;17.00;99.70;;;;;;5070086;28;20446;-66
2021/08/27 09:38:16;;;;;;;33.60;4.27;;;16.80;99.70;;;;;;5070242;28;20443;-66
2021/08/27 09:40:48;;;;;;;35.70;4.97;;;16.80;99.70;;;;;;5069752;28;20451;-67
2021/08/27 09:43:24;;;;;;;32.57;4.30;;;16.80;99.70;;;;;;5070141;28;20922;-68
2021/08/27 09:45:51;;;;;;;31.67;3.63;;;16.80;99.70;;;;;;5069841;28;20474;-66
2021/08/27 09:48:19;;;;;;;32.33;4.27;;;16.70;99.70;;;;;;5070105;28;20455;-66
2021/08/27 09:50:49;;;;;;;32.60;4.37;;;16.60;99.70;;;;;;5069577;28;20526;-68
2021/08/27 09:53:17;;;;;;;31.50;3.87;;;16.70;99.70;;;;;;5069978;28;20532;-67
2021/08/27 09:55:55;;;;;;;32.30;5.20;;;16.60;99.70;;;;;;5069877;28;20447;-69
2021/08/27 09:58:22;;;;;;;31.87;3.70;;;16.80;99.70;;;;;;5069620;28;20507;-66
2021/08/27 10:01:01;;;;;;;32.20;4.30;;;16.70;99.70;;;;;;5070047;28;20473;-66
2021/08/27 10:03:29;;;;;;;32.07;4.73;;;16.80;99.70;;;;;;5070299;28;20435;-67
2021/08/27 10:05:56;;;;;;;31.77;4.50;;;16.90;99.70;;;;;;5073833;28;20925;-66
2021/08/27 10:08:24;;;;;;;32.40;4.47;;;17.00;99.70;;;;;;5073630;28;20442;-65
2021/08/27 10:10:54;;;;;;;33.97;4.60;;;17.20;99.70;;;;;;5072504;28;20942;-67
2021/08/27 10:13:22;;;;;;;33.23;5.40;;;17.40;99.70;;;;;;5073883;28;20478;-67
2021/08/27 10:15:49;;;;;;;31.10;4.17;;;17.40;99.70;;;;;;5073607;28;20453;-67
2021/08/27 10:18:16;;;;;;;33.10;5.77;;;17.30;99.70;;;;;;5074012;28;20474;-67
2021/08/27 10:20:46;;;;;;;32.07;5.60;;;17.00;99.70;;;;;;5073476;28;20446;-67
2021/08/27 10:23:17;;;;;;;32.17;5.47;;;17.00;99.70;;;;;;5073918;28;20434;-66
2021/08/27 10:25:44;;;;;;;32.87;5.13;;;16.90;99.70;;;;;;5073713;28;20863;-66
2021/08/27 10:28:12;;;;;;;31.67;4.50;;;16.90;99.70;;;;;;5073904;28;20435;-66
2021/08/27 10:31:06;;;;;;;34.30;5.60;;;17.00;99.70;;;;;;5073273;28;20512;-66
2021/08/27 10:34:03;;;;;;;32.83;5.87;;;17.20;99.70;;;;;;5037699;28;21033;-69
2021/08/27 10:36:46;;;;;;;34.00;5.97;;;17.20;99.70;;;;;;5073751;28;20442;-66
2021/08/27 10:39:42;;;;;;;33.00;6.17;;;17.30;99.70;;;;;;5073307;28;20430;-67
2021/08/27 10:42:10;;;;;;;33.17;5.20;;;17.30;99.70;;;;;;5073393;28;20504;-67
2021/08/27 10:44:50;;;;;;;35.30;5.37;;;17.20;99.70;;;;;;5073296;28;20985;-69
2021/08/27 10:47:17;;;;;;;31.57;5.10;;;17.10;99.70;;;;;;5073395;28;20454;-67
2021/08/27 10:49:59;;;;;;;32.90;5.43;;;17.00;99.70;;;;;;5072883;28;20443;-66
2021/08/27 10:52:33;;;;;;;33.67;4.77;;;17.00;99.70;;;;;;5073115;28;20589;-66
2021/08/27 10:55:12;;;;;;;33.20;5.33;;;17.00;99.70;;;;;;5073069;28;20868;-66
2021/08/27 10:57:55;;;;;;;33.50;4.90;;;17.40;99.70;;;;;;5073277;28;20447;-66
2021/08/27 11:00:37;;;;;;;33.67;5.67;;;17.60;99.70;;;;;;5072584;28;20471;-66
2021/08/27 11:03:04;;;;;;;32.93;5.60;;;17.70;99.70;;;;;;5073009;28;20458;-67
2021/08/27 11:05:33;;;;;;;33.20;5.80;;;17.70;99.70;;;;;;5072813;28;20463;-68
2021/08/27 11:08:06;;;;;;;34.33;5.70;;;17.80;99.70;;;;;;5072988;28;20450;-67
2021/08/27 11:10:35;;;;;;;35.10;6.73;;;17.60;99.70;;;;;;5072322;28;20455;-66
2021/08/27 11:13:08;;;;;;;33.90;6.27;;;17.60;99.70;;;;;;5070723;28;20509;-66
2021/08/27 11:15:36;;;;;;;33.10;5.40;;;17.20;99.70;;;;;;5071909;28;20450;-66
2021/08/27 11:18:28;;;;;;;34.33;5.77;;;16.90;99.70;;;;;;5072740;28;20720;-67
2021/08/27 11:20:55;;;;;;;32.10;5.03;;;16.80;99.70;;;;;;5067350;28;20461;-67
2021/08/27 11:23:23;;;;;;;36.00;6.00;;;16.80;99.70;;;;;;5072665;28;20516;-67
2021/08/27 11:26:02;;;;;;;34.13;6.10;;;16.80;99.70;;;;;;5072322;28;20521;-67
2021/08/27 11:28:30;;;;;;;33.30;5.80;;;16.80;99.70;;;;;;5072108;28;20568;-67
2021/08/27 11:31:04;;;;;;;33.00;5.57;;;16.80;99.70;;;;;;5072381;28;20470;-67
2021/08/27 11:33:52;;;;;;;36.13;5.63;;;16.70;99.70;;;;;;5072413;28;20561;-66
2021/08/27 11:36:21;;;;;;;32.63;5.90;;;16.70;99.70;;;;;;5072495;28;20443;-66
2021/08/27 11:38:54;;;;;;;33.07;4.97;;;16.60;99.70;;;;;;5071868;28;20442;-67
2021/08/27 11:41:22;;;;;;;34.17;5.20;;;16.60;99.70;;;;;;5072231;28;20474;-67
2021/08/27 11:44:05;;;;;;;34.20;6.20;;;16.40;99.70;;;;;;5072032;28;20439;-63
2021/08/27 11:46:34;;;;;;;35.83;6.10;;;16.30;99.70;;;;;;5072389;28;21080;-66
2021/08/27 11:49:17;;;;;;;32.97;5.70;;;16.40;99.70;;;;;;5071742;28;20542;-66
2021/08/27 11:52:00;;;;;;;34.67;4.80;;;16.50;99.70;;;;;;5072071;28;20470;-67
2021/08/27 11:54:28;;;;;;;33.37;5.13;;;16.50;99.70;;;;;;5071943;28;20937;-67
2021/08/27 11:56:55;;;;;;;32.30;4.93;;;16.50;99.70;;;;;;5071956;28;20469;-67
2021/08/27 11:59:27;;;;;;;32.90;5.43;;;16.60;99.70;;;;;;5071444;28;20496;-67
2021/08/27 12:01:55;;;;;;;32.70;5.20;;;16.60;99.70;;;;;;5071853;28;20470;-67
2021/08/27 12:04:29;;;;;;;33.63;4.90;;;16.80;99.70;;;;;;5071728;28;20431;-67
2021/08/27 12:07:10;;;;;;;33.00;5.57;;;16.90;99.70;;;;;;5071893;28;20445;-67
2021/08/27 12:09:39;;;;;;;33.50;5.27;;;17.00;99.70;;;;;;5071244;28;20823;-67
2021/08/27 12:12:07;;;;;;;32.77;5.43;;;17.20;99.70;;;;;;5070127;28;20465;-66
2021/08/27 12:14:53;;;;;;;33.30;5.53;;;17.20;99.70;;;;;;5071459;28;20488;-66
2021/08/27 12:17:22;;;;;;;34.07;6.20;;;17.50;99.70;;;;;;5071291;28;20951;-66
2021/08/27 12:19:49;;;;;;;34.07;4.80;;;17.40;99.70;;;;;;5071039;28;20438;-67
2021/08/27 12:22:18;;;;;;;33.13;5.33;;;17.10;99.70;;;;;;5071555;28;20455;-68
2021/08/27 12:24:47;;;;;;;33.07;6.10;;;16.90;99.70;;;;;;5071277;28;20478;-68
2021/08/27 12:27:14;;;;;;;33.50;5.30;;;16.70;99.70;;;;;;5070552;28;20488;-68
2021/08/27 12:29:41;;;;;;;34.33;5.67;;;16.80;99.70;;;;;;5070707;28;20443;-66
2021/08/27 12:32:14;;;;;;;32.10;3.80;;;16.70;99.70;;;;;;5071031;28;20839;-67
2021/08/27 12:34:44;;;;;;;31.73;4.43;;;16.80;99.70;;;;;;5071003;28;20470;-68
2021/08/27 12:37:11;;;;;;;32.77;5.23;;;16.70;99.70;;;;;;5071174;28;20815;-67
2021/08/27 12:39:38;;;;;;;32.70;4.40;;;16.70;99.70;;;;;;5070587;28;20473;-67
2021/08/27 12:42:14;;;;;;;33.00;4.50;;;16.70;99.70;;;;;;5070817;28;20462;-67
2021/08/27 12:45:00;;;;;;;32.70;5.13;;;16.90;99.70;;;;;;5070862;28;20500;-67
2021/08/27 12:47:35;;;;;;;33.20;5.10;;;17.10;99.70;;;;;;5070826;28;20455;-67
2021/08/27 12:50:06;;;;;;;32.87;5.83;;;17.30;99.70;;;;;;5070450;28;20872;-66
2021/08/27 12:52:32;;;;;;;33.20;6.50;;;17.60;99.70;;;;;;5070675;28;20473;-66
2021/08/27 12:54:59;;;;;;;32.70;5.90;;;17.60;99.70;;;;;;5070854;28;20443;-67
2021/08/27 12:57:27;;;;;;;32.57;4.93;;;17.40;99.70;;;;;;5070847;28;20447;-67
2021/08/27 12:59:59;;;;;;;33.57;4.77;;;17.30;99.70;;;;;;5070218;28;20443;-67
2021/08/27 13:02:26;;;;;;;32.60;4.87;;;17.20;99.70;;;;;;5070580;28;20553;-67
2021/08/27 13:04:53;;;;;;;32.67;5.40;;;17.30;99.70;;;;;;5070541;28;20446;-67
2021/08/27 13:07:27;;;;;;;32.63;4.40;;;17.60;99.70;;;;;;5070656;28;20483;-67
2021/08/27 13:10:11;;;;;;;31.90;5.03;;;17.70;99.70;;;;;;5069924;28;20946;-67
2021/08/27 13:12:40;;;;;;;33.77;5.60;;;17.90;99.70;;;;;;5068995;28;20467;-67
2021/08/27 13:15:17;;;;;;;32.80;5.73;;;17.90;99.70;;;;;;5070313;28;20450;-67
2021/08/27 13:18:02;;;;;;;32.70;4.60;;;17.80;99.70;;;;;;5070329;28;20504;-67
2021/08/27 13:20:31;;;;;;;32.10;5.03;;;17.70;99.70;;;;;;5069702;28;20457;-65
2021/08/27 13:23:16;;;;;;;32.27;5.10;;;17.70;99.70;;;;;;5070364;28;20463;-68
2021/08/27 13:25:51;;;;;;;31.70;4.30;;;17.90;99.70;;;;;;5070021;28;20495;-67
2021/08/27 13:28:19;;;;;;;31.90;4.27;;;17.70;99.70;;;;;;5070502;28;20963;-67
2021/08/27 13:30:46;;;;;;;31.70;3.73;;;17.70;99.70;;;;;;5069858;28;20447;-67
2021/08/27 13:33:13;;;;;;;32.00;3.37;;;17.80;99.70;;;;;;5070121;28;20478;-67
2021/08/27 13:35:42;;;;;;;33.20;4.60;;;17.80;99.70;;;;;;5070022;28;20439;-68
2021/08/27 13:38:09;;;;;;;31.07;3.90;;;17.90;99.70;;;;;;5070106;28;20476;-67
2021/08/27 13:40:36;;;;;;;31.70;4.17;;;17.90;99.70;;;;;;5069152;28;20930;-67
2021/08/27 13:43:02;;;;;;;32.07;3.30;;;17.90;99.70;;;;;;5070115;28;20462;-66
2021/08/27 13:45:31;;;;;;;31.80;3.20;;;17.80;99.70;;;;;;5069981;28;20468;-67
2021/08/27 13:47:58;;;;;;;31.63;3.30;;;17.70;99.70;;;;;;5069994;28;20885;-67
2021/08/27 13:50:26;;;;;;;32.50;3.73;;;17.80;99.70;;;;;;5069593;28;20445;-68
2021/08/27 13:52:53;;;;;;;31.00;3.30;;;17.80;99.70;;;;;;5069962;28;20552;-67
2021/08/27 13:55:22;;;;;;;32.17;3.90;;;17.90;99.70;;;;;;5069806;28;20954;-67
2021/08/27 13:57:50;;;;;;;31.43;3.27;;;17.90;99.70;;;;;;5070143;28;20439;-67
2021/08/27 14:00:19;;;;;;;31.87;3.87;;;18.00;99.70;;;;;;5106566;22;20499;-67
2021/08/27 14:02:47;;;;;;;31.90;3.43;;;17.90;99.70;;;;;;5030114;28;20444;-68
2021/08/27 14:05:15;;;;;;;31.60;4.20;;;17.90;99.70;;;;;;5030021;28;20814;-67
2021/08/27 14:07:41;;;;;;;31.70;4.10;;;17.90;99.70;;;;;;5030072;28;20484;-67
2021/08/27 14:10:09;;;;;;;31.63;3.63;;;17.90;99.70;;;;;;5029279;28;20468;-67
2021/08/27 14:12:36;;;;;;;31.60;3.47;;;17.80;99.70;;;;;;5028635;28;20440;-67
2021/08/27 14:15:04;;;;;;;31.87;3.10;;;17.80;99.70;;;;;;5029662;28;20484;-67
2021/08/27 14:17:31;;;;;;;32.07;3.57;;;17.80;99.70;;;;;;5030007;28;20448;-67
2021/08/27 14:20:00;;;;;;;33.80;4.17;;;17.70;99.70;;;;;;5029219;28;20465;-67
2021/08/27 14:22:27;;;;;;;32.37;3.73;;;17.70;99.70;;;;;;5029938;28;20888;-67
2021/08/27 14:24:54;;;;;;;31.37;3.20;;;17.70;99.70;;;;;;5029637;28;20751;-67
2021/08/27 14:27:21;;;;;;;32.07;3.30;;;17.70;99.70;;;;;;5029957;28;20440;-67
2021/08/27 14:29:48;;;;;;;31.57;3.27;;;17.70;99.70;;;;;;5029339;28;20468;-67
2021/08/27 14:32:18;;;;;;;31.80;2.87;;;17.70;99.70;;;;;;5029801;28;20451;-67
2021/08/27 14:34:45;;;;;;;32.20;3.73;;;17.70;99.70;;;;;;5029671;28;20484;-68
2021/08/27 14:37:13;;;;;;;32.50;3.60;;;17.80;99.70;;;;;;5029873;28;20452;-67
2021/08/27 14:39:40;;;;;;;31.77;3.43;;;17.90;99.70;;;;;;5029081;28;20475;-67
2021/08/27 14:42:07;;;;;;;34.03;3.70;;;17.80;99.70;;;;;;5029659;28;20829;-67
2021/08/27 14:44:34;;;;;;;32.80;3.70;;;17.70;99.70;;;;;;5029629;28;20457;-67
2021/08/27 14:47:01;;;;;;;31.57;3.83;;;17.70;99.70;;;;;;5029810;28;20455;-67
2021/08/27 14:49:31;;;;;;;32.20;3.87;;;17.80;99.70;;;;;;5029182;28;20465;-67
2021/08/27 14:51:58;;;;;;;32.80;4.03;;;17.70;99.70;;;;;;5031881;28;20449;-67
2021/08/27 14:54:26;;;;;;;32.10;4.07;;;17.90;99.70;;;;;;5033051;28;21007;-67
2021/08/27 14:56:54;;;;;;;34.60;4.37;;;18.00;99.70;;;;;;5033412;28;21055;-67
2021/08/27 14:59:20;;;;;;;31.90;3.70;;;18.10;99.70;;;;;;5032457;28;20480;-67
2021/08/27 15:01:47;;;;;;;31.70;4.20;;;18.20;99.70;;;;;;5033179;28;20476;-67
2021/08/27 15:04:14;;;;;;;33.37;4.77;;;18.00;99.70;;;;;;5032824;28;20436;-68
2021/08/27 15:06:40;;;;;;;33.77;4.60;;;18.10;99.70;;;;;;5033213;28;20444;-67
2021/08/27 15:09:07;;;;;;;31.97;4.17;;;18.10;99.70;;;;;;5032572;28;20444;-67
2021/08/27 15:11:36;;;;;;;32.23;4.40;;;18.10;99.70;;;;;;5031804;28;20440;-67
2021/08/27 15:14:02;;;;;;;32.80;4.27;;;18.10;99.70;;;;;;5032863;28;20495;-67
2021/08/27 15:16:29;;;;;;;32.60;3.93;;;18.10;99.70;;;;;;5033240;28;20524;-67
2021/08/27 15:18:56;;;;;;;32.43;4.40;;;18.10;99.70;;;;;;5032683;28;20456;-67
2021/08/27 15:21:22;;;;;;;32.80;3.43;;;18.10;99.70;;;;;;5032986;28;20480;-67
2021/08/27 15:23:49;;;;;;;31.80;3.80;;;18.30;99.70;;;;;;5032703;28;20436;-66
2021/08/27 15:26:16;;;;;;;32.20;3.80;;;18.20;99.70;;;;;;5032907;28;20473;-67
2021/08/27 15:28:44;;;;;;;33.50;4.37;;;18.10;99.70;;;;;;5032408;28;20448;-67
2021/08/27 15:31:10;;;;;;;34.53;3.97;;;18.00;99.70;;;;;;5032697;28;20967;-67
2021/08/27 15:33:37;;;;;;;32.73;3.43;;;18.10;99.70;;;;;;5032393;28;20487;-67
2021/08/27 15:36:04;;;;;;;32.20;4.03;;;18.00;99.70;;;;;;5032439;28;20774;-67
2021/08/27 15:38:32;;;;;;;33.27;3.70;;;17.90;99.70;;;;;;5031885;28;20540;-67
2021/08/27 15:40:58;;;;;;;31.53;2.87;;;17.70;99.70;;;;;;5032210;28;20555;-67
2021/08/27 15:43:25;;;;;;;33.90;3.90;;;17.70;99.70;;;;;;5032460;28;20444;-67
2021/08/27 15:45:53;;;;;;;32.73;3.40;;;17.70;99.70;;;;;;5032089;28;20441;-67
2021/08/27 15:48:20;;;;;;;32.87;3.67;;;17.70;99.70;;;;;;5032317;28;20452;-67
2021/08/27 15:50:47;;;;;;;32.00;3.67;;;17.60;99.70;;;;;;5032158;28;20480;-67
2021/08/27 15:53:13;;;;;;;34.17;3.83;;;17.60;99.70;;;;;;5032119;28;20871;-67
2021/08/27 15:55:42;;;;;;;31.70;3.80;;;17.60;99.70;;;;;;5032018;28;20452;-67
2021/08/27 15:58:09;;;;;;;32.43;4.17;;;17.70;99.70;;;;;;5032130;28;20502;-67
2021/08/27 16:00:36;;;;;;;31.90;4.20;;;17.70;99.70;;;;;;5031342;28;20476;-67
2021/08/27 16:03:04;;;;;;;32.27;4.07;;;17.70;99.70;;;;;;5031847;28;20832;-67
2021/08/27 16:05:33;;;;;;;34.50;4.47;;;17.70;99.70;;;;;;5031758;28;20445;-67
2021/08/27 16:08:00;;;;;;;32.37;4.33;;;17.60;99.70;;;;;;5031632;28;20535;-67
2021/08/27 16:10:27;;;;;;;32.50;4.80;;;17.60;99.70;;;;;;5031403;28;20468;-67
2021/08/27 16:12:54;;;;;;;33.17;3.90;;;17.50;99.70;;;;;;5030554;28;20454;-67
2021/08/27 16:15:20;;;;;;;32.40;3.90;;;17.40;99.70;;;;;;5031551;28;20485;-67